Time;durP1;ratioP1;P1;durP2;ratioP2;P2;SDS_P1;SDS_P2;PMS_P1;PMS_P2;Temp;Humidity;BMP_temperature;BMP_pressure;BME280_temperature;BME280_humidity;BME280_pressure;Samples;Min_cycle;Max_cycle;Signal;HPM_P1;HPM_P2
2022/09/19 00:01:26;;;;;;;1.40;0.30;;;;;;;;;;4864338;29;20032;-78
2022/09/19 00:03:55;;;;;;;2.75;0.63;;;;;;;;;;4877438;29;20041;-77
2022/09/19 00:06:22;;;;;;;1.10;0.45;;;;;;;;;;4864235;29;20029;-78
2022/09/19 00:08:48;;;;;;;1.88;0.43;;;;;;;;;;4880899;29;20081;-77
2022/09/19 00:11:17;;;;;;;1.42;0.40;;;;;;;;;;4880717;29;20032;-78
2022/09/19 00:13:47;;;;;;;2.13;0.50;;;;;;;;;;4880826;29;20105;-78
2022/09/19 00:16:17;;;;;;;1.67;0.40;;;;;;;;;;4864150;29;20124;-78
2022/09/19 00:18:43;;;;;;;1.17;0.45;;;;;;;;;;4863835;29;20376;-77
2022/09/19 00:21:09;;;;;;;2.45;0.50;;;;;;;;;;4863706;29;20032;-77
2022/09/19 00:26:20;;;;;;;3.50;0.50;;;;;;;;;;4880697;29;20750;-78
2022/09/19 00:28:47;;;;;;;1.08;0.40;;;;;;;;;;4863868;29;20029;-78
2022/09/19 00:31:16;;;;;;;2.72;0.50;;;;;;;;;;4880428;29;20040;-78
2022/09/19 00:33:44;;;;;;;0.93;0.50;;;;;;;;;;4863816;29;20097;-77
2022/09/19 00:36:10;;;;;;;2.88;0.65;;;;;;;;;;4863770;29;20025;-78
2022/09/19 00:38:37;;;;;;;3.22;0.60;;;;;;;;;;4863274;29;20127;-78
2022/09/19 00:41:03;;;;;;;0.90;0.38;;;;;;;;;;4863424;29;20033;-77
2022/09/19 00:43:44;;;;;;;2.95;0.52;;;;;;;;;;4880383;29;20045;-78
2022/09/19 00:46:10;;;;;;;0.88;0.45;;;;;;;;;;4863471;29;20033;-77
2022/09/19 00:48:41;;;;;;;1.17;0.50;;;;;;;;;;4863201;29;20479;-78
2022/09/19 00:51:09;;;;;;;1.70;0.40;;;;;;;;;;4863409;29;20033;-78
2022/09/19 00:53:36;;;;;;;0.93;0.30;;;;;;;;;;4863390;29;20056;-77
2022/09/19 00:56:02;;;;;;;1.55;0.63;;;;;;;;;;4863217;29;20029;-78
2022/09/19 00:58:30;;;;;;;1.60;0.40;;;;;;;;;;4862805;29;20049;-78
2022/09/19 01:00:57;;;;;;;1.08;0.32;;;;;;;;;;4863259;29;20029;-78
2022/09/19 01:03:25;;;;;;;0.85;0.30;;;;;;;;;;4863329;29;20577;-78
2022/09/19 01:06:05;;;;;;;1.80;0.30;;;;;;;;;;4863285;29;20108;-78
2022/09/19 01:08:42;;;;;;;2.53;0.35;;;;;;;;;;4863206;29;20141;-78
2022/09/19 01:11:10;;;;;;;1.40;0.47;;;;;;;;;;4862989;29;20035;-77
2022/09/19 01:13:53;;;;;;;1.15;0.40;;;;;;;;;;4863033;29;20532;-78
2022/09/19 01:16:20;;;;;;;;;;;;;;;;;;4863503;29;20066;-78
2022/09/19 01:19:09;;;;;;;2.15;0.30;;;;;;;;;;4879734;29;19916;-78
2022/09/19 01:21:40;;;;;;;1.00;0.40;;;;;;;;;;4862426;29;20028;-78
2022/09/19 01:24:21;;;;;;;0.93;0.43;;;;;;;;;;4879695;29;20035;-79
2022/09/19 01:26:58;;;;;;;2.05;0.40;;;;;;;;;;4862969;29;20025;-78
2022/09/19 01:29:37;;;;;;;1.25;0.40;;;;;;;;;;4862895;29;20505;-78
2022/09/19 01:32:05;;;;;;;1.98;0.50;;;;;;;;;;4862864;29;20025;-78
2022/09/19 01:34:33;;;;;;;0.80;0.50;;;;;;;;;;4879440;29;20474;-77
2022/09/19 01:37:05;;;;;;;1.92;0.70;;;;;;;;;;4862854;29;20025;-78
2022/09/19 01:39:33;;;;;;;1.17;0.50;;;;;;;;;;4862495;29;20052;-78
2022/09/19 01:41:59;;;;;;;1.40;0.50;;;;;;;;;;4879265;29;20124;-77
2022/09/19 01:44:26;;;;;;;1.48;0.50;;;;;;;;;;4862635;29;20033;-78
2022/09/19 01:46:52;;;;;;;0.77;0.40;;;;;;;;;;4879427;29;20033;-78
2022/09/19 01:49:21;;;;;;;1.70;0.63;;;;;;;;;;4862507;29;20091;-78
2022/09/19 01:51:57;;;;;;;0.93;0.50;;;;;;;;;;4862624;29;20059;-76
2022/09/19 01:54:26;;;;;;;1.08;0.35;;;;;;;;;;4862584;29;20375;-78
2022/09/19 01:57:11;;;;;;;7.10;0.47;;;;;;;;;;4862537;29;20036;-78
2022/09/19 01:59:56;;;;;;;0.82;0.40;;;;;;;;;;4862257;29;20048;-77
2022/09/19 02:02:29;;;;;;;1.80;0.70;;;;;;;;;;4862295;29;20036;-77
2022/09/19 02:05:01;;;;;;;1.40;0.60;;;;;;;;;;4879311;29;20029;-78
2022/09/19 02:07:42;;;;;;;2.13;0.60;;;;;;;;;;4862556;29;20037;-77
2022/09/19 02:10:20;;;;;;;2.28;0.40;;;;;;;;;;4866438;29;20021;-77
2022/09/19 02:12:50;;;;;;;1.27;0.32;;;;;;;;;;4866008;29;20073;-78
2022/09/19 02:15:17;;;;;;;0.70;0.30;;;;;;;;;;4866041;29;20025;-77
2022/09/19 02:17:53;;;;;;;1.13;0.30;;;;;;;;;;4866019;29;20033;-78
2022/09/19 02:20:39;;;;;;;0.68;0.38;;;;;;;;;;4866244;29;20048;-78
2022/09/19 02:23:09;;;;;;;2.33;0.50;;;;;;;;;;4865835;29;20057;-78
2022/09/19 02:25:35;;;;;;;1.77;0.50;;;;;;;;;;4865801;29;20125;-78
2022/09/19 02:28:04;;;;;;;0.95;0.35;;;;;;;;;;4866067;29;20028;-78
2022/09/19 02:30:31;;;;;;;1.10;0.50;;;;;;;;;;4865938;29;20029;-78
2022/09/19 02:32:57;;;;;;;0.70;0.40;;;;;;;;;;4865965;29;20371;-78
2022/09/19 02:35:34;;;;;;;1.17;0.40;;;;;;;;;;4865645;29;20399;-78
2022/09/19 02:38:22;;;;;;;1.00;0.40;;;;;;;;;;4865873;29;20029;-77
2022/09/19 02:41:00;;;;;;;5.15;0.45;;;;;;;;;;4856548;29;20098;-78
2022/09/19 02:43:56;;;;;;;0.85;0.40;;;;;;;;;;4882249;29;20475;-78
2022/09/19 02:46:28;;;;;;;0.88;0.40;;;;;;;;;;4850277;29;20097;-78
2022/09/19 02:49:02;;;;;;;1.85;0.57;;;;;;;;;;4865685;29;20505;-79
2022/09/19 02:51:36;;;;;;;0.95;0.30;;;;;;;;;;4865642;29;20040;-78
2022/09/19 02:54:02;;;;;;;;;;;;;;;;;;4865931;29;20040;-78
2022/09/19 02:56:30;;;;;;;2.42;0.77;;;;;;;;;;4865238;29;19908;-77
2022/09/19 02:59:02;;;;;;;1.58;0.38;;;;;;;;;;4882026;29;20041;-77
2022/09/19 03:01:30;;;;;;;0.77;0.40;;;;;;;;;;4865509;29;20558;-76
2022/09/19 03:04:18;;;;;;;2.03;0.40;;;;;;;;;;4865136;29;20025;-78
2022/09/19 03:06:51;;;;;;;3.53;0.45;;;;;;;;;;4865479;29;20215;-76
2022/09/19 03:09:19;;;;;;;3.22;0.45;;;;;;;;;;4865238;29;20116;-77
2022/09/19 03:11:49;;;;;;;3.33;0.60;;;;;;;;;;4881891;29;20029;-78
2022/09/19 03:14:16;;;;;;;1.70;0.50;;;;;;;;;;4865148;29;20025;-77
2022/09/19 03:16:47;;;;;;;1.45;0.40;;;;;;;;;;4864899;29;20032;-78
2022/09/19 03:19:13;;;;;;;1.40;0.40;;;;;;;;;;4864796;29;20041;-77
2022/09/19 03:21:41;;;;;;;0.88;0.32;;;;;;;;;;4881580;29;20394;-78
2022/09/19 03:24:08;;;;;;;3.28;0.70;;;;;;;;;;4881615;29;20025;-76
2022/09/19 03:26:35;;;;;;;1.40;0.63;;;;;;;;;;4864837;29;20033;-77
2022/09/19 03:29:03;;;;;;;1.00;0.60;;;;;;;;;;4881724;29;20100;-76
2022/09/19 03:31:30;;;;;;;2.13;0.70;;;;;;;;;;4864907;29;20119;-77
2022/09/19 03:33:56;;;;;;;2.15;0.47;;;;;;;;;;4881567;29;20037;-75
2022/09/19 03:36:23;;;;;;;1.40;0.55;;;;;;;;;;4881383;29;20021;-75
2022/09/19 03:38:49;;;;;;;1.42;0.70;;;;;;;;;;4881427;29;20497;-75
2022/09/19 03:41:16;;;;;;;1.42;0.57;;;;;;;;;;4864614;29;20033;-75
2022/09/19 03:43:42;;;;;;;1.95;0.63;;;;;;;;;;4881475;29;20045;-76
2022/09/19 03:46:12;;;;;;;2.55;0.63;;;;;;;;;;4881450;29;20049;-75
2022/09/19 03:48:39;;;;;;;1.25;0.55;;;;;;;;;;4864319;29;20124;-76
2022/09/19 03:51:06;;;;;;;1.10;0.60;;;;;;;;;;4864454;29;20025;-76
2022/09/19 03:53:33;;;;;;;1.35;0.52;;;;;;;;;;4864513;29;20024;-76
2022/09/19 03:56:03;;;;;;;2.33;0.40;;;;;;;;;;4864535;29;20021;-76
2022/09/19 03:58:35;;;;;;;1.73;0.60;;;;;;;;;;4880901;29;20040;-76
2022/09/19 04:01:01;;;;;;;3.90;0.65;;;;;;;;;;4864408;29;20041;-75
2022/09/19 04:03:27;;;;;;;4.45;0.70;;;;;;;;;;4881143;29;20081;-77
2022/09/19 04:05:53;;;;;;;1.00;0.40;;;;;;;;;;4881226;29;20029;-76
2022/09/19 04:08:20;;;;;;;1.55;0.65;;;;;;;;;;4864280;29;20040;-76
2022/09/19 04:10:46;;;;;;;0.70;0.43;;;;;;;;;;4864066;29;20574;-75
2022/09/19 04:13:13;;;;;;;0.77;0.30;;;;;;;;;;4864208;29;20025;-78
2022/09/19 04:15:40;;;;;;;1.42;0.40;;;;;;;;;;4864150;29;20116;-78
2022/09/19 04:18:06;;;;;;;1.77;0.50;;;;;;;;;;4864037;29;20036;-77
2022/09/19 04:20:33;;;;;;;5.03;0.93;;;;;;;;;;4880925;29;20033;-76
2022/09/19 04:23:00;;;;;;;0.98;0.35;;;;;;;;;;4863685;29;20478;-76
2022/09/19 04:25:35;;;;;;;4.30;0.43;;;;;;;;;;4863960;29;20382;-78
2022/09/19 04:28:06;;;;;;;0.77;0.20;;;;;;;;;;4863962;29;20092;-77
2022/09/19 04:30:34;;;;;;;1.17;0.45;;;;;;;;;;4863923;29;20025;-77
2022/09/19 04:33:03;;;;;;;0.60;0.30;;;;;;;;;;4862702;29;20478;-76
2022/09/19 04:35:30;;;;;;;1.67;0.20;;;;;;;;;;4885468;29;20029;-76
2022/09/19 04:37:56;;;;;;;0.75;0.40;;;;;;;;;;4873631;29;20028;-76
2022/09/19 04:40:22;;;;;;;0.90;0.30;;;;;;;;;;4863592;29;20516;-76
2022/09/19 04:42:48;;;;;;;1.23;0.30;;;;;;;;;;4863477;29;20387;-73
2022/09/19 04:45:20;;;;;;;0.82;0.30;;;;;;;;;;4863617;29;20029;-76
2022/09/19 04:47:47;;;;;;;0.95;0.35;;;;;;;;;;4880164;29;20021;-74
2022/09/19 04:50:13;;;;;;;0.43;0.20;;;;;;;;;;4863598;29;20418;-77
2022/09/19 04:52:39;;;;;;;0.32;0.10;;;;;;;;;;4863215;29;20439;-75
2022/09/19 04:55:06;;;;;;;0.88;0.20;;;;;;;;;;4863224;29;20033;-76
2022/09/19 04:57:32;;;;;;;0.50;0.20;;;;;;;;;;4863226;29;20033;-75
2022/09/19 04:59:58;;;;;;;1.98;0.20;;;;;;;;;;4862781;29;20040;-75
2022/09/19 05:02:29;;;;;;;0.30;0.20;;;;;;;;;;4854677;29;20451;-75
2022/09/19 05:04:55;;;;;;;0.32;0.13;;;;;;;;;;4861870;29;20037;-76
2022/09/19 05:07:33;;;;;;;2.80;0.30;;;;;;;;;;4880467;29;20104;-75
2022/09/19 05:10:00;;;;;;;0.35;0.10;;;;;;;;;;4894537;29;20033;-74
2022/09/19 05:12:28;;;;;;;1.25;0.20;;;;;;;;;;4898109;29;20027;-74
2022/09/19 05:14:54;;;;;;;0.55;0.10;;;;;;;;;;4878330;29;20040;-74
2022/09/19 05:17:20;;;;;;;1.25;0.20;;;;;;;;;;4898214;29;20028;-74
2022/09/19 05:19:46;;;;;;;0.77;0.30;;;;;;;;;;4875403;29;20044;-73
2022/09/19 05:22:12;;;;;;;0.52;0.10;;;;;;;;;;4879340;29;20029;-70
2022/09/19 05:24:38;;;;;;;0.50;0.20;;;;;;;;;;4862642;29;20033;-72
2022/09/19 05:27:04;;;;;;;0.30;0.10;;;;;;;;;;4862658;29;20033;-72
2022/09/19 05:29:36;;;;;;;0.20;0.10;;;;;;;;;;4875953;29;20054;-71
2022/09/19 05:32:04;;;;;;;0.40;0.20;;;;;;;;;;4862103;29;20101;-72
2022/09/19 05:34:30;;;;;;;0.20;0.10;;;;;;;;;;4862924;29;20033;-70
2022/09/19 05:36:56;;;;;;;0.40;0.10;;;;;;;;;;4879278;29;20089;-70
2022/09/19 05:39:23;;;;;;;14.10;0.25;;;;;;;;;;4862547;29;20036;-70
2022/09/19 05:41:49;;;;;;;0.60;0.20;;;;;;;;;;4862950;29;20068;-75
2022/09/19 05:44:16;;;;;;;0.35;0.10;;;;;;;;;;4870892;29;20074;-71
2022/09/19 05:46:43;;;;;;;0.45;0.10;;;;;;;;;;4889024;29;20018;-70
2022/09/19 05:49:09;;;;;;;0.60;0.20;;;;;;;;;;4868227;29;20085;-70
2022/09/19 05:51:35;;;;;;;0.65;0.20;;;;;;;;;;4871795;29;20028;-73
2022/09/19 05:54:01;;;;;;;0.35;0.10;;;;;;;;;;4877814;29;20033;-73
2022/09/19 05:56:29;;;;;;;0.65;0.10;;;;;;;;;;4878880;29;20091;-71
2022/09/19 05:58:56;;;;;;;6.10;0.55;;;;;;;;;;4877685;29;20525;-72
2022/09/19 06:01:22;;;;;;;0.55;0.10;;;;;;;;;;4877745;29;20029;-71
2022/09/19 06:03:48;;;;;;;0.65;0.10;;;;;;;;;;4879154;29;20032;-71
2022/09/19 06:06:18;;;;;;;0.75;0.15;;;;;;;;;;4877459;29;20177;-71
2022/09/19 06:08:45;;;;;;;0.40;0.20;;;;;;;;;;4877707;29;20032;-70
2022/09/19 06:11:11;;;;;;;0.20;0.10;;;;;;;;;;4854826;29;20439;-71
2022/09/19 06:16:23;;;;;;;2.15;0.70;;;;;;;;;;4892851;29;20035;-71
2022/09/19 06:18:49;;;;;;;0.40;0.20;;;;;;;;;;4886020;29;20128;-71
2022/09/19 06:21:15;;;;;;;0.43;0.13;;;;;;;;;;4869624;29;20090;-72
2022/09/19 06:23:41;;;;;;;0.60;0.10;;;;;;;;;;4877643;29;20029;-72
2022/09/19 06:26:08;;;;;;;2.10;0.30;;;;;;;;;;4880542;29;20510;-70
2022/09/19 06:28:34;;;;;;;0.75;0.43;;;;;;;;;;4874196;29;20108;-71
2022/09/19 06:31:04;;;;;;;1.52;0.30;;;;;;;;;;4891106;29;20033;-70
2022/09/19 06:33:30;;;;;;;2.33;0.20;;;;;;;;;;4893984;29;20029;-71
2022/09/19 06:36:00;;;;;;;0.73;0.30;;;;;;;;;;4880087;29;20060;-73
2022/09/19 06:38:30;;;;;;;1.00;0.20;;;;;;;;;;4877160;29;20085;-70
2022/09/19 06:40:56;;;;;;;1.52;0.50;;;;;;;;;;4878432;29;20069;-71
2022/09/19 06:43:22;;;;;;;2.75;0.40;;;;;;;;;;4861644;29;20048;-70
2022/09/19 06:45:48;;;;;;;5.15;0.30;;;;;;;;;;4861697;29;20123;-70
2022/09/19 06:48:15;;;;;;;2.03;0.30;;;;;;;;;;4878606;29;20471;-68
2022/09/19 06:50:44;;;;;;;0.90;0.20;;;;;;;;;;4878716;29;20048;-72
2022/09/19 06:53:10;;;;;;;0.75;0.15;;;;;;;;;;4861621;29;20029;-71
2022/09/19 06:55:37;;;;;;;0.22;0.00;;;;;;;;;;4863496;29;20029;-71
2022/09/19 06:58:03;;;;;;;1.40;0.17;;;;;;;;;;4882008;29;20036;-71
2022/09/19 07:00:31;;;;;;;0.47;0.10;;;;;;;;;;4881844;29;20041;-71
2022/09/19 07:03:16;;;;;;;0.75;0.20;;;;;;;;;;4855352;29;20036;-71
2022/09/19 07:05:44;;;;;;;1.95;0.30;;;;;;;;;;4861795;29;20032;-67
2022/09/19 07:08:12;;;;;;;0.60;0.10;;;;;;;;;;4870661;29;20554;-73
2022/09/19 07:10:38;;;;;;;0.57;0.20;;;;;;;;;;4872092;29;20074;-71
2022/09/19 07:13:06;;;;;;;0.45;0.10;;;;;;;;;;4871861;29;20478;-70
2022/09/19 07:15:33;;;;;;;0.13;0.00;;;;;;;;;;4874653;29;20021;-71
2022/09/19 07:17:59;;;;;;;0.10;0.00;;;;;;;;;;4892094;29;20119;-69
2022/09/19 07:20:26;;;;;;;0.60;0.20;;;;;;;;;;4883615;29;20077;-72
2022/09/19 07:22:59;;;;;;;0.75;0.20;;;;;;;;;;4889479;29;20029;-72
2022/09/19 07:25:26;;;;;;;0.82;0.10;;;;;;;;;;4864692;29;20870;-72
2022/09/19 07:27:55;;;;;;;0.10;0.00;;;;;;;;;;4881507;29;20048;-73
2022/09/19 07:30:21;;;;;;;0.10;0.10;;;;;;;;;;4864747;29;20130;-73
2022/09/19 07:32:48;;;;;;;0.70;0.10;;;;;;;;;;4864334;29;20025;-73
2022/09/19 07:35:14;;;;;;;0.10;0.00;;;;;;;;;;4864739;29;20061;-72
2022/09/19 07:37:40;;;;;;;0.20;0.10;;;;;;;;;;4881310;29;20021;-72
2022/09/19 07:40:06;;;;;;;1.00;0.10;;;;;;;;;;4881552;29;20124;-71
2022/09/19 07:42:32;;;;;;;0.35;0.10;;;;;;;;;;4880814;29;20041;-73
2022/09/19 07:44:58;;;;;;;0.57;0.10;;;;;;;;;;4864487;29;20033;-74
2022/09/19 07:47:28;;;;;;;0.25;0.10;;;;;;;;;;4865424;29;20127;-73
2022/09/19 07:49:54;;;;;;;0.60;0.10;;;;;;;;;;4872251;29;20033;-72
2022/09/19 07:52:22;;;;;;;0.17;0.03;;;;;;;;;;4866678;29;20035;-72
2022/09/19 07:54:48;;;;;;;0.35;0.10;;;;;;;;;;4873940;29;20067;-74
2022/09/19 07:57:14;;;;;;;0.40;0.10;;;;;;;;;;4887130;29;20474;-73
2022/09/19 07:59:40;;;;;;;0.28;0.10;;;;;;;;;;4890730;29;20048;-73
2022/09/19 08:02:08;;;;;;;0.30;0.10;;;;;;;;;;4871277;29;20029;-72
2022/09/19 08:04:36;;;;;;;0.30;0.00;;;;;;;;;;4864266;29;20040;-73
2022/09/19 08:07:02;;;;;;;1.27;0.10;;;;;;;;;;4880629;29;20100;-72
2022/09/19 08:09:28;;;;;;;2.08;0.17;;;;;;;;;;4880843;29;20086;-72
2022/09/19 08:11:54;;;;;;;0.95;0.20;;;;;;;;;;4880512;29;20031;-72
2022/09/19 08:14:20;;;;;;;0.77;0.22;;;;;;;;;;4864013;29;20407;-72
2022/09/19 08:16:46;;;;;;;2.92;0.30;;;;;;;;;;4880671;29;20105;-73
2022/09/19 08:19:12;;;;;;;0.68;0.22;;;;;;;;;;4872078;29;20100;-72
2022/09/19 08:21:40;;;;;;;0.85;0.25;;;;;;;;;;4899042;29;20108;-75
2022/09/19 08:24:07;;;;;;;0.55;0.22;;;;;;;;;;4882280;29;20043;-76
2022/09/19 08:26:33;;;;;;;1.27;0.25;;;;;;;;;;4882367;29;20032;-75
2022/09/19 08:29:00;;;;;;;0.93;0.30;;;;;;;;;;4882271;29;20139;-77
2022/09/19 08:31:26;;;;;;;0.38;0.05;;;;;;;;;;4881996;29;20069;-75
2022/09/19 08:33:52;;;;;;;0.40;0.10;;;;;;;;;;4882224;29;20085;-76
2022/09/19 08:36:18;;;;;;;3.45;0.30;;;;;;;;;;4882209;29;20036;-74
2022/09/19 08:38:44;;;;;;;1.92;0.35;;;;;;;;;;4881972;29;20041;-74
2022/09/19 08:41:29;;;;;;;0.70;0.20;;;;;;;;;;4875984;29;20032;-75
2022/09/19 08:44:03;;;;;;;0.35;0.08;;;;;;;;;;4884905;29;20490;-76
2022/09/19 08:46:33;;;;;;;0.00;0.00;;;;;;;;;;4882663;29;20048;-76
2022/09/19 08:49:20;;;;;;;1.55;0.20;;;;;;;;;;4889426;29;20025;-77
2022/09/19 08:51:46;;;;;;;0.20;0.05;;;;;;;;;;4886838;29;20021;-77
2022/09/19 08:54:16;;;;;;;0.65;0.13;;;;;;;;;;4871014;29;20474;-78
2022/09/19 08:56:44;;;;;;;0.90;0.20;;;;;;;;;;4864490;29;20048;-74
2022/09/19 08:59:15;;;;;;;0.40;0.10;;;;;;;;;;4863115;29;20045;-75
2022/09/19 09:01:41;;;;;;;0.30;0.10;;;;;;;;;;4862720;29;20041;-76
2022/09/19 09:04:19;;;;;;;0.35;0.10;;;;;;;;;;4863329;29;20054;-78
2022/09/19 09:07:04;;;;;;;0.20;0.03;;;;;;;;;;4862803;29;20033;-79
2022/09/19 09:09:45;;;;;;;0.68;0.15;;;;;;;;;;4879794;29;20057;-76
2022/09/19 09:12:20;;;;;;;1.35;0.10;;;;;;;;;;4861088;29;20056;-78
2022/09/19 09:14:46;;;;;;;0.30;0.10;;;;;;;;;;4861091;29;20104;-77
2022/09/19 09:17:28;;;;;;;1.65;0.10;;;;;;;;;;4860592;29;20547;-76
2022/09/19 09:20:03;;;;;;;0.20;0.10;;;;;;;;;;4844681;29;20371;-76
2022/09/19 09:22:34;;;;;;;0.10;0.00;;;;;;;;;;4844774;29;20394;-76
2022/09/19 09:25:09;;;;;;;2.17;0.22;;;;;;;;;;4844328;29;20041;-77
2022/09/19 09:27:39;;;;;;;0.00;0.00;;;;;;;;;;4844185;29;20030;-77
2022/09/19 09:30:16;;;;;;;1.08;0.10;;;;;;;;;;4844326;29;20029;-78
2022/09/19 09:32:44;;;;;;;0.20;0.08;;;;;;;;;;4851730;29;20116;-78
2022/09/19 09:35:33;;;;;;;1.98;0.20;;;;;;;;;;4862727;29;20115;-77
2022/09/19 09:38:04;;;;;;;0.20;0.10;;;;;;;;;;4862385;29;20394;-77
2022/09/19 09:43:20;;;;;;;0.20;0.10;;;;;;;;;;4878996;29;20057;-78
2022/09/19 09:45:49;;;;;;;0.70;0.10;;;;;;;;;;4879347;29;20025;-79
2022/09/19 09:48:26;;;;;;;1.35;0.28;;;;;;;;;;4879134;29;20208;-78
2022/09/19 09:51:11;;;;;;;0.10;0.00;;;;;;;;;;4862318;29;20037;-79
2022/09/19 09:53:53;;;;;;;0.50;0.13;;;;;;;;;;4878931;29;20029;-77
2022/09/19 09:56:19;;;;;;;0.80;0.20;;;;;;;;;;4862488;29;20525;-78
2022/09/19 09:59:04;;;;;;;0.35;0.10;;;;;;;;;;4861936;29;20037;-79
2022/09/19 10:04:21;;;;;;;2.70;0.10;;;;;;;;;;4879223;29;20105;-79
2022/09/19 10:06:52;;;;;;;0.40;0.20;;;;;;;;;;4862238;29;20483;-78
2022/09/19 10:09:18;;;;;;;0.65;0.20;;;;;;;;;;4862325;29;20033;-78
2022/09/19 10:11:56;;;;;;;0.75;0.10;;;;;;;;;;4862177;29;20069;-76
2022/09/19 10:14:25;;;;;;;2.40;0.20;;;;;;;;;;4862152;29;20124;-76
2022/09/19 10:16:53;;;;;;;0.65;0.20;;;;;;;;;;4862109;29;20029;-79
2022/09/19 10:19:40;;;;;;;0.50;0.05;;;;;;;;;;4862302;29;20107;-76
2022/09/19 10:22:14;;;;;;;0.68;0.20;;;;;;;;;;4878356;29;20506;-78
2022/09/19 10:24:44;;;;;;;0.30;0.10;;;;;;;;;;4862215;29;20025;-77
2022/09/19 10:27:25;;;;;;;0.20;0.10;;;;;;;;;;4862102;29;20025;-75
2022/09/19 10:30:11;;;;;;;0.88;0.30;;;;;;;;;;4879125;29;20021;-71
2022/09/19 10:32:38;;;;;;;0.85;0.25;;;;;;;;;;4882440;29;20025;-76
2022/09/19 10:35:27;;;;;;;1.42;0.20;;;;;;;;;;4865664;29;20040;-74
2022/09/19 10:38:13;;;;;;;0.85;0.20;;;;;;;;;;4854265;29;20040;-79
2022/09/19 10:40:58;;;;;;;0.88;0.10;;;;;;;;;;4877824;29;20044;-74
2022/09/19 10:43:31;;;;;;;0.20;0.10;;;;;;;;;;4863374;29;20069;-76
2022/09/19 10:46:05;;;;;;;0.55;0.20;;;;;;;;;;4863839;29;20062;-76
2022/09/19 10:48:32;;;;;;;1.00;0.22;;;;;;;;;;4863532;29;20103;-77
2022/09/19 10:50:59;;;;;;;0.52;0.20;;;;;;;;;;4863656;29;20033;-77
2022/09/19 10:53:26;;;;;;;0.63;0.20;;;;;;;;;;4877792;29;20510;-77
2022/09/19 10:55:53;;;;;;;0.30;0.10;;;;;;;;;;4867480;29;20018;-79
2022/09/19 10:58:26;;;;;;;0.35;0.17;;;;;;;;;;4865214;29;20037;-78
2022/09/19 11:01:04;;;;;;;0.40;0.25;;;;;;;;;;4881901;29;20056;-75
2022/09/19 11:03:32;;;;;;;0.93;0.20;;;;;;;;;;4882126;29;20077;-75
2022/09/19 11:06:16;;;;;;;0.20;0.10;;;;;;;;;;4882039;29;20025;-75
2022/09/19 11:08:47;;;;;;;0.82;0.20;;;;;;;;;;4864939;29;20112;-76
2022/09/19 11:11:25;;;;;;;1.17;0.40;;;;;;;;;;4865158;29;20383;-75
2022/09/19 11:14:07;;;;;;;3.30;1.20;;;;;;;;;;4865022;29;20029;-73
2022/09/19 11:16:41;;;;;;;1.50;0.60;;;;;;;;;;4881778;29;20139;-74
2022/09/19 11:19:26;;;;;;;0.25;0.10;;;;;;;;;;4864841;29;20127;-75
2022/09/19 11:21:59;;;;;;;0.30;0.10;;;;;;;;;;4881485;29;20372;-75
2022/09/19 11:24:34;;;;;;;0.75;0.20;;;;;;;;;;4881738;29;20044;-76
2022/09/19 11:27:06;;;;;;;0.20;0.10;;;;;;;;;;4864762;29;20029;-73
2022/09/19 11:29:35;;;;;;;0.30;0.20;;;;;;;;;;4881302;29;20109;-75
2022/09/19 11:32:14;;;;;;;0.38;0.13;;;;;;;;;;4881478;29;20036;-74
2022/09/19 11:34:58;;;;;;;0.50;0.20;;;;;;;;;;4880217;29;20033;-77
2022/09/19 11:37:38;;;;;;;0.38;0.13;;;;;;;;;;4880254;29;20029;-80
2022/09/19 11:40:18;;;;;;;0.90;0.30;;;;;;;;;;4880165;29;20059;-76
2022/09/19 11:43:02;;;;;;;0.22;0.10;;;;;;;;;;4893086;29;20384;-75
2022/09/19 11:45:33;;;;;;;1.65;0.22;;;;;;;;;;4882884;29;20025;-75
2022/09/19 11:48:02;;;;;;;0.82;0.20;;;;;;;;;;4899991;29;20389;-76
2022/09/19 11:50:39;;;;;;;0.57;0.13;;;;;;;;;;4883042;29;20035;-77
2022/09/19 11:53:28;;;;;;;0.32;0.20;;;;;;;;;;4877455;29;20025;-77
2022/09/19 11:56:16;;;;;;;0.70;0.20;;;;;;;;;;4861196;29;20021;-77
2022/09/19 11:59:05;;;;;;;2.53;0.47;;;;;;;;;;4861337;29;20085;-78
2022/09/19 12:01:38;;;;;;;10.60;0.70;;;;;;;;;;4862162;29;20029;-77
2022/09/19 12:04:25;;;;;;;1.55;0.55;;;;;;;;;;4861291;29;20057;-79
2022/09/19 12:07:12;;;;;;;1.80;0.20;;;;;;;;;;4862193;29;20022;-80
2022/09/19 12:10:04;;;;;;;1.77;0.40;;;;;;;;;;4861172;29;20053;-82
2022/09/19 12:12:36;;;;;;;0.80;0.30;;;;;;;;;;4843703;29;20510;-81
2022/09/19 12:15:15;;;;;;;0.95;0.30;;;;;;;;;;4861047;29;20361;-76
2022/09/19 12:17:43;;;;;;;3.45;0.20;;;;;;;;;;4860804;29;20037;-77
2022/09/19 12:20:30;;;;;;;5.72;0.90;;;;;;;;;;4860590;29;20042;-75
2022/09/19 12:22:58;;;;;;;2.38;0.70;;;;;;;;;;4860643;29;20112;-76
2022/09/19 12:25:29;;;;;;;1.98;0.50;;;;;;;;;;4862152;29;20040;-73
2022/09/19 12:28:01;;;;;;;1.60;0.50;;;;;;;;;;4861661;29;20026;-75
2022/09/19 12:30:30;;;;;;;3.35;0.47;;;;;;;;;;4860766;29;20601;-75
2022/09/19 12:33:29;;;;;;;2.13;0.88;;;;;;;;;;4873508;29;20021;-74
2022/09/19 12:36:14;;;;;;;3.38;0.88;;;;;;;;;;4861544;29;20150;-76
2022/09/19 12:38:50;;;;;;;1.88;0.30;;;;;;;;;;4869387;29;20030;-76
2022/09/19 12:41:26;;;;;;;1.33;0.30;;;;;;;;;;4852623;29;20475;-72
2022/09/19 12:43:52;;;;;;;1.98;0.40;;;;;;;;;;4889866;29;20092;-75
2022/09/19 12:46:39;;;;;;;2.85;0.40;;;;;;;;;;4871217;29;20088;-78
2022/09/19 12:49:08;;;;;;;1.30;0.40;;;;;;;;;;4866106;29;20087;-75
2022/09/19 12:51:45;;;;;;;2.28;0.40;;;;;;;;;;4875706;29;20032;-74
2022/09/19 12:54:16;;;;;;;0.90;0.22;;;;;;;;;;4869833;29;20036;-73
2022/09/19 12:56:46;;;;;;;0.80;0.28;;;;;;;;;;4870117;29;20595;-71
2022/09/19 12:59:23;;;;;;;2.47;0.40;;;;;;;;;;4883844;29;20045;-77
2022/09/19 13:01:55;;;;;;;4.85;0.40;;;;;;;;;;4862987;29;20033;-78
2022/09/19 13:04:37;;;;;;;1.10;0.32;;;;;;;;;;4862985;29;20059;-77
2022/09/19 13:07:09;;;;;;;3.88;0.52;;;;;;;;;;4862941;29;20032;-76
2022/09/19 13:10:02;;;;;;;2.08;1.10;;;;;;;;;;4863043;29;20021;-77
2022/09/19 13:12:31;;;;;;;2.13;0.77;;;;;;;;;;4835284;29;20072;-78
2022/09/19 13:15:02;;;;;;;1.55;0.80;;;;;;;;;;4879513;29;20108;-77
2022/09/19 13:26:25;;;;;;;3.45;0.60;;;;;;;;;;4879619;29;20085;-75
2022/09/19 13:28:58;;;;;;;2.53;0.88;;;;;;;;;;4877568;29;20040;-75
2022/09/19 13:31:26;;;;;;;2.80;0.52;;;;;;;;;;4881326;29;20037;-77
2022/09/19 13:33:57;;;;;;;1.30;0.63;;;;;;;;;;4898112;29;20100;-74
2022/09/19 13:36:23;;;;;;;0.93;0.30;;;;;;;;;;4881107;29;20028;-78
2022/09/19 13:38:51;;;;;;;1.13;0.40;;;;;;;;;;4896560;29;20047;-78
2022/09/19 13:41:32;;;;;;;2.25;0.40;;;;;;;;;;4870059;29;20024;-74
2022/09/19 13:44:03;;;;;;;2.10;0.40;;;;;;;;;;4870543;29;20139;-75
2022/09/19 13:46:48;;;;;;;1.80;0.40;;;;;;;;;;4870961;29;20020;-75
2022/09/19 13:49:30;;;;;;;0.82;0.43;;;;;;;;;;4868958;29;20029;-78
2022/09/19 13:52:04;;;;;;;1.33;0.50;;;;;;;;;;4862549;29;20120;-77
2022/09/19 13:54:30;;;;;;;1.08;0.43;;;;;;;;;;4862493;29;20026;-72
2022/09/19 13:57:02;;;;;;;1.98;0.43;;;;;;;;;;4851188;29;20033;-73
2022/09/19 13:59:31;;;;;;;0.75;0.40;;;;;;;;;;4843971;29;20126;-73
2022/09/19 14:02:15;;;;;;;0.85;0.40;;;;;;;;;;4857422;29;20080;-73
2022/09/19 14:04:58;;;;;;;1.05;0.40;;;;;;;;;;4881150;29;20033;-72
2022/09/19 14:07:30;;;;;;;0.82;0.40;;;;;;;;;;4862922;29;20025;-73
2022/09/19 14:09:59;;;;;;;0.85;0.30;;;;;;;;;;4866009;29;20502;-75
2022/09/19 14:12:45;;;;;;;1.88;0.32;;;;;;;;;;4866159;29;20021;-76
2022/09/19 14:15:29;;;;;;;1.05;0.40;;;;;;;;;;4882941;29;20028;-76
2022/09/19 14:18:10;;;;;;;0.82;0.30;;;;;;;;;;4865935;29;20089;-77
2022/09/19 14:20:48;;;;;;;1.00;0.30;;;;;;;;;;4865938;29;20136;-76
2022/09/19 14:23:16;;;;;;;1.58;0.30;;;;;;;;;;4882650;29;20080;-75
2022/09/19 14:25:54;;;;;;;1.48;0.30;;;;;;;;;;4882848;29;20504;-74
2022/09/19 14:28:33;;;;;;;1.63;0.50;;;;;;;;;;4865904;29;20036;-75
2022/09/19 14:31:06;;;;;;;4.35;0.20;;;;;;;;;;4882511;29;20041;-78
2022/09/19 14:33:53;;;;;;;0.70;0.30;;;;;;;;;;4865786;29;20036;-75
2022/09/19 14:36:28;;;;;;;0.82;0.35;;;;;;;;;;4882505;29;20555;-77
2022/09/19 14:39:13;;;;;;;0.38;0.20;;;;;;;;;;4865705;29;20029;-73
2022/09/19 14:41:49;;;;;;;0.70;0.20;;;;;;;;;;4864452;29;20056;-78
2022/09/19 14:44:25;;;;;;;0.47;0.20;;;;;;;;;;4881298;29;20025;-79
2022/09/19 14:46:59;;;;;;;0.40;0.10;;;;;;;;;;4882257;29;20079;-79
2022/09/19 14:49:28;;;;;;;0.70;0.30;;;;;;;;;;4882550;29;20025;-81
2022/09/19 14:52:02;;;;;;;0.90;0.30;;;;;;;;;;4865443;29;20036;-75
2022/09/19 14:54:38;;;;;;;2.50;0.38;;;;;;;;;;4882201;29;20036;-75
2022/09/19 14:57:06;;;;;;;1.23;0.20;;;;;;;;;;4881830;29;20029;-78
2022/09/19 14:59:34;;;;;;;1.33;0.47;;;;;;;;;;4866235;29;20400;-76
2022/09/19 15:02:09;;;;;;;0.95;0.45;;;;;;;;;;4882111;29;20522;-72
2022/09/19 15:04:35;;;;;;;0.73;0.30;;;;;;;;;;4881649;29;20482;-75
2022/09/19 15:07:03;;;;;;;1.42;0.45;;;;;;;;;;4881816;29;20040;-76
2022/09/19 15:09:30;;;;;;;1.17;0.70;;;;;;;;;;4881508;29;20646;-75
2022/09/19 15:11:58;;;;;;;1.35;0.40;;;;;;;;;;4881867;29;20478;-74
2022/09/19 15:14:26;;;;;;;0.70;0.30;;;;;;;;;;4881804;29;20529;-76
2022/09/19 15:17:10;;;;;;;0.90;0.50;;;;;;;;;;4880487;29;20153;-75
2022/09/19 15:19:36;;;;;;;;;;;;;;;;;;4865545;29;20047;-72
2022/09/19 15:22:02;;;;;;;0.98;0.50;;;;;;;;;;4865093;29;20006;-78
2022/09/19 15:24:29;;;;;;;1.38;0.47;;;;;;;;;;4881918;29;20036;-75
2022/09/19 15:26:57;;;;;;;1.85;0.50;;;;;;;;;;4881605;29;20036;-75
2022/09/19 15:29:31;;;;;;;1.02;0.38;;;;;;;;;;4881639;29;20025;-74